Airport ID:KSMD
Update Time (UTC):28/03/2020 09:32
Wind Speed (Knots):6
Wind Direction (Magnetic):80
Temperature (°C):6.9
Dew Point (°C):7
Humidity (%):100
Altimeter (inHg):29.73
Density Altitude (Feet):
Visibility (Miles):5
Clouds (Hundreds of feet):OVC004
Present Weather:BR
METAR:METAR KSMD 280930Z AUTO 08004KT 5SM BR OVC004 07/07 A2973 RMK A01

The data displayed is for advisory purposes only and is not to be used for flight planning or operations.

This page is not automatically refreshed. Reload the page to see current data.